createdAt,value
2017-10-31T17:49:59.360Z,75.93
2017-10-31T17:50:59.661Z,76.21
2017-10-31T17:51:59.655Z,76.5
2017-10-31T17:52:59.645Z,76.88
2017-10-31T17:53:59.310Z,76.59
2017-10-31T17:54:59.748Z,76.78
2017-10-31T17:55:59.766Z,77.64
2017-10-31T17:56:59.608Z,78.21
2017-10-31T17:57:59.275Z,77.92
2017-10-31T17:58:59.589Z,78.59
2017-10-31T17:59:59.356Z,78.4
2017-10-31T18:00:59.246Z,78.59
2017-10-31T18:01:59.243Z,78.69
2017-10-31T18:02:59.553Z,79.16
2017-10-31T18:03:59.562Z,79.44
2017-10-31T18:04:59.210Z,79.54
2017-10-31T18:05:59.212Z,79.35
2017-10-31T18:06:59.202Z,79.35
2017-10-31T18:07:59.508Z,80.02
2017-10-31T18:08:59.647Z,79.83
2017-10-31T18:09:59.493Z,80.02
2017-10-31T18:10:59.482Z,79.92
2017-10-31T18:11:59.147Z,80.4
2017-10-31T18:12:59.135Z,80.68
2017-10-31T18:13:59.128Z,81.3
2017-10-31T18:14:59.375Z,81.21
2017-10-31T18:15:59.108Z,80.83
2017-10-31T18:16:59.110Z,80.77
2017-10-31T18:17:59.419Z,80.55
2017-10-31T18:18:59.405Z,81.4
2017-10-31T18:19:59.495Z,80.45
2017-10-31T18:20:59.387Z,80.74
2017-10-31T18:21:59.052Z,80.83
2017-10-31T18:22:59.059Z,81.02
2017-10-31T18:23:59.184Z,81.3
2017-10-31T18:24:59.026Z,81.59
2017-10-31T18:25:59.016Z,81.78
2017-10-31T18:26:59.008Z,82.26
2017-10-31T18:27:59.322Z,82.45
2017-10-31T18:28:58.986Z,82.26
2017-10-31T18:29:59.305Z,82.07
2017-10-31T18:30:59.297Z,82.26
2017-10-31T18:31:58.961Z,82.26
2017-10-31T18:32:59.273Z,82.64
2017-10-31T18:33:59.294Z,82.64
2017-10-31T18:34:59.253Z,82.92
2017-10-31T18:35:58.924Z,82.54
2017-10-31T18:36:59.247Z,82.45
2017-10-31T18:37:58.909Z,82.82
2017-10-31T18:38:59.218Z,83.11
2017-10-31T18:39:58.887Z,83.3
2017-10-31T18:40:58.882Z,82.82
2017-10-31T18:41:59.202Z,83.2
2017-10-31T18:42:58.878Z,83.3
2017-10-31T18:43:58.853Z,83.11
2017-10-31T18:44:59.316Z,83.3
2017-10-31T18:45:59.256Z,83.3
2017-10-31T18:46:58.821Z,82.92
2017-10-31T18:47:59.136Z,83.01
2017-10-31T18:48:59.125Z,83.2
2017-10-31T18:49:59.116Z,83.3
2017-10-31T18:50:58.786Z,83.3
2017-10-31T18:51:59.097Z,83.78
2017-10-31T18:52:59.090Z,83.78
2017-10-31T18:53:59.092Z,83.78
2017-10-31T18:54:58.746Z,83.97
2017-10-31T18:55:58.737Z,83.59
2017-10-31T18:56:59.052Z,83.78
2017-10-31T18:57:58.720Z,83.78
2017-10-31T18:58:59.041Z,83.78
2017-10-31T18:59:58.702Z,83.87
2017-10-31T19:00:59.168Z,83.59
2017-10-31T19:01:58.682Z,83.78
2017-10-31T19:02:58.674Z,83.87
2017-10-31T19:03:58.665Z,83.78
2017-10-31T19:04:58.655Z,84.06
2017-10-31T19:05:58.647Z,84.06
2017-10-31T19:06:58.637Z,84.53
2017-10-31T19:07:58.949Z,84.34
2017-10-31T19:08:58.951Z,84.53
2017-10-31T19:09:58.608Z,84.63
2017-10-31T19:10:58.599Z,84.4
2017-10-31T19:11:58.591Z,84.78
2017-10-31T19:12:58.906Z,84.78
2017-10-31T19:13:58.570Z,84.49
2017-10-31T19:14:58.562Z,85.16
2017-10-31T19:15:58.554Z,85.06
2017-10-31T19:16:58.867Z,84.78
2017-10-31T19:17:58.535Z,84.87
2017-10-31T19:18:58.525Z,85.25
2017-10-31T19:19:58.516Z,85.72
2017-10-31T19:20:58.827Z,85.72
2017-10-31T19:21:58.821Z,85.35
2017-10-31T19:22:58.810Z,85.53
2017-10-31T19:23:58.479Z,85.63
2017-10-31T19:24:58.470Z,85.53
2017-10-31T19:25:58.459Z,85.72
2017-10-31T19:26:59.039Z,86.01
2017-10-31T19:27:58.767Z,86.11
2017-10-31T19:28:58.433Z,85.63
2017-10-31T19:29:58.423Z,85.35
2017-10-31T19:30:58.842Z,86.2
2017-10-31T19:31:58.504Z,86.2
2017-10-31T19:32:58.395Z,85.82
2017-10-31T19:33:58.387Z,86.2
2017-10-31T19:34:58.395Z,85.53
2017-10-31T19:35:58.791Z,86.01
2017-10-31T19:36:58.358Z,85.44
2017-10-31T19:37:58.679Z,85.82
2017-10-31T19:38:58.345Z,86.3
2017-10-31T19:39:58.653Z,86.11
2017-10-31T19:40:58.644Z,86.11
2017-10-31T19:41:58.635Z,86.01
2017-10-31T19:42:58.625Z,86.39
2017-10-31T19:43:58.617Z,86.11
2017-10-31T19:44:58.607Z,86.68
2017-10-31T19:45:58.275Z,86.11
2017-10-31T19:46:58.264Z,86.49
2017-10-31T19:47:58.254Z,86.39
2017-10-31T19:48:58.668Z,86.49
2017-10-31T19:49:58.560Z,86.2
2017-10-31T19:50:58.551Z,86.3
2017-10-31T19:51:58.219Z,86.68
2017-10-31T19:52:58.209Z,86.58
2017-10-31T19:53:58.524Z,87.15
2017-10-31T19:54:58.190Z,87.05
2017-10-31T19:55:58.502Z,86.39
2017-10-31T19:56:58.495Z,86.77
2017-10-31T19:57:58.485Z,86.87
2017-10-31T19:58:58.478Z,86.68
2017-10-31T19:59:58.144Z,86.39
2017-10-31T20:00:58.457Z,86.58
2017-10-31T20:01:58.448Z,86.3
2017-10-31T20:02:58.442Z,86.58
2017-10-31T20:03:58.429Z,86.49
2017-10-31T20:04:58.097Z,86.44
2017-10-31T20:05:58.412Z,87.2
2017-10-31T20:06:58.500Z,87.2
2017-10-31T20:07:58.069Z,87.01
2017-10-31T20:08:58.389Z,87.15
2017-10-31T20:09:58.373Z,87.87
2017-10-31T20:10:58.692Z,87.58
2017-10-31T20:11:58.029Z,87.58
2017-10-31T20:12:58.346Z,88.06
2017-10-31T20:13:58.338Z,87.77
2017-10-31T20:14:58.003Z,88.01
2017-10-31T20:15:58.142Z,87.39
2017-10-31T20:16:57.983Z,88.24
2017-10-31T20:17:57.974Z,88.15
2017-10-31T20:18:57.966Z,88.15
2017-10-31T20:19:58.280Z,88.15
2017-10-31T20:20:58.420Z,87.87
2017-10-31T20:21:58.419Z,88.81
2017-10-31T20:22:57.930Z,88.72
2017-10-31T20:23:57.916Z,88.29
2017-10-31T20:24:58.232Z,89
2017-10-31T20:25:58.231Z,88.95
2017-10-31T20:26:57.890Z,88.86
2017-10-31T20:27:57.880Z,88.39
2017-10-31T20:28:57.872Z,88.1
2017-10-31T20:29:58.185Z,88.24
2017-10-31T20:30:57.856Z,88.95
2017-10-31T20:31:57.844Z,88.1
2017-10-31T20:32:57.835Z,88.91
2017-10-31T20:33:57.823Z,88.91
2017-10-31T20:34:57.814Z,89.29
2017-10-31T20:35:57.807Z,89.58
2017-10-31T20:36:58.120Z,89.2
2017-10-31T20:37:57.785Z,89.29
2017-10-31T20:38:57.777Z,89.67
2017-10-31T20:39:58.092Z,89.48
2017-10-31T20:40:58.233Z,89.39
2017-10-31T20:41:58.078Z,89.76
2017-10-31T20:42:58.063Z,89.48
2017-10-31T20:43:57.731Z,89.48
2017-10-31T20:44:58.045Z,89.29
2017-10-31T20:45:58.048Z,89.76
2017-10-31T20:46:58.036Z,89.95
2017-10-31T20:47:57.693Z,89.95
2017-10-31T20:48:57.683Z,89.48
2017-10-31T20:49:57.676Z,89.1
2017-10-31T20:50:57.816Z,89.29
2017-10-31T20:51:57.654Z,89.2
2017-10-31T20:52:58.204Z,89.29
2017-10-31T20:53:58.033Z,89.1
2017-10-31T20:54:57.740Z,89.58
2017-10-31T20:55:57.718Z,89.29
2017-10-31T20:57:57.597Z,89.48
2017-10-31T20:58:57.914Z,89.29
2017-10-31T20:59:57.579Z,89.76
2017-10-31T21:00:57.571Z,89.1
2017-10-31T21:01:57.887Z,88.81
2017-10-31T21:02:57.553Z,89
2017-10-31T21:03:57.543Z,89.29
2017-10-31T21:04:57.856Z,89.2
2017-10-31T21:05:57.524Z,89.76
2017-10-31T21:06:57.514Z,89.48
2017-10-31T21:07:57.829Z,89.29
2017-10-31T21:08:57.496Z,89.39
2017-10-31T21:09:57.486Z,89.48
2017-10-31T21:10:57.799Z,89.2
2017-10-31T21:11:57.468Z,89.48
2017-10-31T21:12:57.782Z,89.29
2017-10-31T21:13:57.453Z,89.2
2017-10-31T21:14:57.440Z,89.67
2017-10-31T21:15:57.752Z,89.58
2017-10-31T21:16:57.421Z,89.95
2017-10-31T21:17:57.411Z,90.14
2017-10-31T21:18:57.400Z,89.86
2017-10-31T21:19:57.491Z,89.67
2017-10-31T21:20:57.705Z,89.39
2017-10-31T21:21:57.373Z,89.29
2017-10-31T21:22:57.363Z,89.86
2017-10-31T21:23:57.675Z,89.95
2017-10-31T21:24:57.675Z,90.43
2017-10-31T21:25:57.433Z,90.52
2017-10-31T21:26:57.649Z,90.52
2017-10-31T21:27:57.316Z,90.33
2017-10-31T21:28:57.305Z,90.33
2017-10-31T21:29:57.618Z,89.58
2017-10-31T21:30:57.288Z,90.33
2017-10-31T21:31:57.276Z,90.14
2017-10-31T21:32:57.590Z,90.24
2017-10-31T21:33:57.260Z,90.24
2017-10-31T21:34:57.249Z,90.9
2017-10-31T21:35:57.240Z,90.81
2017-10-31T21:36:57.703Z,90.81
2017-10-31T21:37:57.222Z,90.43
2017-10-31T21:38:57.535Z,90.52
2017-10-31T21:39:57.526Z,90.9
2017-10-31T21:40:57.191Z,91
2017-10-31T21:41:57.184Z,90.71
2017-10-31T21:42:57.496Z,90.71
2017-10-31T21:43:57.489Z,90.81
2017-10-31T21:44:57.475Z,90.81
2017-10-31T21:45:57.571Z,90.81
2017-10-31T21:46:57.134Z,90.71
2017-10-31T21:47:57.124Z,90.81
2017-10-31T21:48:57.117Z,90.71
2017-10-31T21:49:57.437Z,90.62
2017-10-31T21:50:57.099Z,90.62
2017-10-31T21:51:57.091Z,91.09
2017-10-31T21:52:57.078Z,91.61
2017-10-31T21:53:57.392Z,90.9
2017-10-31T21:54:57.058Z,90.76
2017-10-31T21:55:57.050Z,90.81
2017-10-31T21:56:57.462Z,91
2017-10-31T21:57:57.031Z,90.95
2017-10-31T21:58:57.021Z,90.95
2017-10-31T21:59:57.011Z,91.61
2017-10-31T22:00:57.327Z,91.8
2017-10-31T22:01:56.992Z,91.05
2017-10-31T22:02:56.983Z,91.05
2017-10-31T22:03:57.299Z,91.61
2017-10-31T22:04:56.967Z,91.52
2017-10-31T22:05:57.104Z,91.52
2017-10-31T22:06:57.093Z,91.33
2017-10-31T22:07:56.933Z,91.61
2017-10-31T22:08:56.927Z,91.14
2017-10-31T22:09:56.915Z,91.14
2017-10-31T22:10:57.232Z,91.71
2017-10-31T22:11:56.897Z,91.9
2017-10-31T22:12:56.988Z,91.71
2017-10-31T22:13:57.202Z,91.42
2017-10-31T22:14:57.191Z,91.8
2017-10-31T22:15:57.186Z,91.71
2017-10-31T22:16:56.849Z,91.52
2017-10-31T22:17:56.840Z,91.61
2017-10-31T22:18:56.830Z,91.14
2017-10-31T22:19:57.145Z,91.05
2017-10-31T22:20:56.838Z,91.14
2017-10-31T22:21:57.225Z,91.71
2017-10-31T22:22:57.122Z,91.05
2017-10-31T22:23:57.254Z,90.95
2017-10-31T22:24:56.773Z,91.05
2017-10-31T22:25:56.767Z,91.61
2017-10-31T22:26:57.077Z,91.52
2017-10-31T22:27:57.068Z,91.05
2017-10-31T22:28:56.735Z,90.57
2017-10-31T22:29:56.728Z,90.76
2017-10-31T22:30:56.717Z,91.61
2017-10-31T22:31:56.708Z,91.52
2017-10-31T22:32:56.704Z,91.42
2017-10-31T22:33:57.012Z,91.42
2017-10-31T22:34:57.004Z,91.8
2017-10-31T22:35:56.670Z,91.52
2017-10-31T22:36:56.986Z,91.33
2017-10-31T22:37:56.973Z,91.33
2017-10-31T22:38:56.962Z,92.18
2017-10-31T22:39:56.630Z,92.09
2017-10-31T22:40:56.946Z,92.28
2017-10-31T22:41:56.942Z,91.99
2017-10-31T22:42:56.600Z,91.52
2017-10-31T22:43:56.924Z,91.71
2017-10-31T22:44:56.904Z,92.28
2017-10-31T22:45:56.573Z,91.8
2017-10-31T22:46:56.565Z,92.57
2017-10-31T22:47:56.556Z,92.94
2017-10-31T22:48:56.546Z,92.57
2017-10-31T22:49:56.535Z,92.66
2017-10-31T22:50:56.850Z,92.85
2017-10-31T22:51:56.842Z,92.28
2017-10-31T22:52:56.506Z,91.99
2017-10-31T22:53:56.824Z,92.09
2017-10-31T22:54:56.810Z,92.09
2017-10-31T22:55:56.803Z,91.99
2017-10-31T22:56:56.811Z,91.9
2017-10-31T22:57:56.459Z,92.94
2017-10-31T22:58:56.451Z,92.47
2017-10-31T22:59:56.439Z,92.66
2017-10-31T23:00:56.431Z,92.66
2017-10-31T23:01:56.743Z,93.04
2017-10-31T23:02:56.738Z,92.28
2017-10-31T23:03:56.402Z,93.04
2017-10-31T23:04:56.540Z,92.85
2017-10-31T23:05:56.705Z,92.85
2017-10-31T23:06:56.372Z,92.66
2017-10-31T23:07:56.461Z,93.04
2017-10-31T23:08:56.352Z,92.85
2017-10-31T23:09:56.345Z,92.76
2017-10-31T23:10:56.333Z,92.66
2017-10-31T23:11:56.324Z,93.04
2017-10-31T23:12:56.314Z,92.66
2017-10-31T23:13:56.630Z,92.76
2017-10-31T23:14:56.295Z,93.23
2017-10-31T23:15:56.287Z,93.51
2017-10-31T23:16:56.276Z,93.51
2017-10-31T23:17:56.590Z,93.8
2017-10-31T23:18:56.582Z,92.94
2017-10-31T23:19:56.248Z,92.85
2017-10-31T23:20:56.560Z,92.85
2017-10-31T23:21:56.551Z,92.94
2017-10-31T23:22:56.219Z,92.47
2017-10-31T23:23:56.533Z,92.57
2017-10-31T23:24:56.199Z,92.38
2017-10-31T23:25:56.512Z,92.38
2017-10-31T23:26:56.180Z,92.94
2017-10-31T23:27:56.169Z,92.47
2017-10-31T23:28:56.159Z,92.76
2017-10-31T23:29:56.151Z,92.85
2017-10-31T23:30:56.464Z,92.18
2017-10-31T23:31:56.456Z,92.57
2017-10-31T23:32:56.446Z,92.57
2017-10-31T23:33:56.536Z,92.94
2017-10-31T23:34:56.438Z,92.47
2017-10-31T23:35:56.420Z,92.66
2017-10-31T23:36:56.082Z,92.57
2017-10-31T23:37:56.400Z,92.76
2017-10-31T23:38:56.064Z,92.57
2017-10-31T23:39:56.381Z,92.85
2017-10-31T23:40:56.045Z,92.66
2017-10-31T23:41:56.362Z,92.76
2017-10-31T23:42:56.025Z,92.38
2017-10-31T23:43:56.016Z,93.13
2017-10-31T23:44:56.332Z,92.85
2017-10-31T23:45:56.198Z,92.94
2017-10-31T23:46:56.325Z,92.85
2017-10-31T23:47:55.975Z,93.61
2017-10-31T23:48:56.291Z,93.61
2017-10-31T23:49:56.282Z,93.32
2017-10-31T23:50:55.949Z,93.41
2017-10-31T23:51:55.938Z,93.61
2017-10-31T23:52:56.256Z,93.51
2017-10-31T23:53:56.017Z,93.41
2017-10-31T23:54:55.908Z,93.51
2017-10-31T23:55:55.899Z,93.32
2017-10-31T23:56:56.217Z,93.32
2017-10-31T23:57:55.880Z,93.51
2017-10-31T23:58:56.200Z,93.32
2017-10-31T23:59:55.861Z,92.99
